Terminal Aerodrome Forecast
Issued by NWS Melbourne, FL

Home | Current Version | Previous Version | Text Only | Print | Product List | Glossary On
Versions: 1 2 3 4 5 6 7 8 9 10 11 12 13 14 15 16 17 18
000
FTUS42 KMLB 272339
TAFMLB
TAF
KMLB 272339Z 2800/2824 25005KT P6SM VCTS SCT040CB BKN080
     FM280200 25003KT P6SM FEW030 SCT120
     FM281400 23005KT P6SM SCT025
     FM282000 13007KT P6SM VCTS SCT040CB SCT100=

USA.gov is the U.S. government's official web portal to all federal, state and local government web resources and services.